Time;durP1;ratioP1;P1;durP2;ratioP2;P2;SDS_P1;SDS_P2;PMS_P1;PMS_P2;Temp;Humidity;BMP_temperature;BMP_pressure;BME280_temperature;BME280_humidity;BME280_pressure;Samples;Min_cycle;Max_cycle;Signal;HPM_P1;HPM_P2
2023/11/17 00:00:48;;;;;;;3.45;2.72;;;10.50;99.90;;;;;;4267427;27;20042;-56
2023/11/17 00:02:50;;;;;;;4.93;2.70;;;10.70;99.90;;;;;;4267159;27;20103;-56
2023/11/17 00:04:53;;;;;;;4.97;2.67;;;10.70;99.90;;;;;;4267188;27;20043;-56
2023/11/17 00:06:57;;;;;;;5.70;2.92;;;10.60;99.90;;;;;;4267553;27;20465;-56
2023/11/17 00:09:00;;;;;;;6.70;3.00;;;10.60;99.90;;;;;;4268665;27;20042;-65
2023/11/17 00:11:03;;;;;;;4.95;2.85;;;10.60;99.90;;;;;;4269152;27;20043;-59
2023/11/17 00:13:05;;;;;;;5.22;2.47;;;10.60;99.90;;;;;;4268187;27;20129;-55
2023/11/17 00:15:09;;;;;;;4.40;2.53;;;10.60;99.90;;;;;;4269539;27;20047;-57
2023/11/17 00:17:11;;;;;;;7.45;2.25;;;10.60;99.90;;;;;;4269032;27;20051;-61
2023/11/17 00:19:14;;;;;;;10.48;2.67;;;10.60;99.90;;;;;;4269713;27;21267;-58
2023/11/17 00:21:17;;;;;;;7.93;2.58;;;10.70;99.90;;;;;;4269630;27;20140;-57
2023/11/17 00:23:20;;;;;;;7.53;2.40;;;10.60;99.90;;;;;;4270052;27;20126;-61
2023/11/17 00:25:24;;;;;;;4.75;2.25;;;10.60;99.90;;;;;;4269716;27;20488;-66
2023/11/17 00:27:26;;;;;;;6.15;2.17;;;10.60;99.90;;;;;;4270609;27;20129;-63
2023/11/17 00:29:28;;;;;;;7.00;2.72;;;10.60;99.90;;;;;;4269450;27;20048;-57
2023/11/17 00:31:31;;;;;;;3.97;2.17;;;10.60;99.90;;;;;;4269389;27;20409;-60
2023/11/17 00:33:33;;;;;;;6.07;2.05;;;10.50;99.90;;;;;;4270057;27;20066;-58
2023/11/17 00:35:35;;;;;;;3.90;2.17;;;10.60;99.90;;;;;;4269568;27;20049;-56
2023/11/17 00:37:38;;;;;;;5.78;2.10;;;10.50;99.90;;;;;;4268006;27;20095;-55
2023/11/17 00:39:42;;;;;;;5.63;2.45;;;10.60;99.90;;;;;;4267221;27;20070;-56
2023/11/17 00:41:44;;;;;;;8.38;2.05;;;10.60;99.90;;;;;;4266826;27;20427;-58
2023/11/17 00:43:46;;;;;;;6.90;2.30;;;10.60;99.90;;;;;;4266260;27;20058;-56
2023/11/17 00:45:51;;;;;;;5.88;2.13;;;10.70;99.90;;;;;;4247971;27;20039;-57
2023/11/17 00:47:54;;;;;;;3.78;2.33;;;10.50;99.90;;;;;;4265944;27;20078;-56
2023/11/17 00:49:56;;;;;;;4.90;2.25;;;10.50;99.90;;;;;;4266267;27;20092;-59
2023/11/17 00:51:58;;;;;;;3.42;1.70;;;10.50;99.90;;;;;;4266331;27;20070;-56
2023/11/17 00:54:04;;;;;;;4.05;1.92;;;10.40;99.90;;;;;;4265857;27;20077;-56
2023/11/17 00:56:10;;;;;;;8.85;2.70;;;10.40;99.90;;;;;;4265255;27;20062;-56
2023/11/17 00:58:12;;;;;;;2.83;1.90;;;10.40;99.90;;;;;;4265833;27;20487;-56
2023/11/17 01:00:15;;;;;;;4.68;2.30;;;10.40;99.90;;;;;;4265636;27;20047;-58
2023/11/17 01:02:18;;;;;;;6.30;2.53;;;10.40;99.90;;;;;;4265441;27;20101;-57
2023/11/17 01:04:21;;;;;;;5.68;2.08;;;10.40;99.90;;;;;;4265567;27;20053;-55
2023/11/17 01:06:23;;;;;;;4.82;2.08;;;10.50;99.90;;;;;;4265572;27;20141;-56
2023/11/17 01:08:26;;;;;;;4.32;2.50;;;10.50;99.90;;;;;;4265677;27;20043;-56
2023/11/17 01:10:28;;;;;;;5.25;2.75;;;10.50;99.90;;;;;;4266667;27;20057;-56
2023/11/17 01:12:31;;;;;;;4.80;2.08;;;10.50;99.90;;;;;;4265593;27;20069;-57
2023/11/17 01:14:33;;;;;;;6.07;2.03;;;10.50;99.90;;;;;;4265347;27;20054;-56
2023/11/17 01:16:36;;;;;;;6.22;2.17;;;10.50;99.90;;;;;;4265541;27;20050;-57
2023/11/17 01:18:38;;;;;;;5.15;1.98;;;10.50;99.90;;;;;;4265707;27;20055;-57
2023/11/17 01:20:40;;;;;;;5.88;2.08;;;10.40;99.90;;;;;;4265570;27;20523;-57
2023/11/17 01:22:44;;;;;;;3.85;1.70;;;10.30;99.90;;;;;;4265305;27;20054;-58
2023/11/17 01:24:46;;;;;;;6.30;2.20;;;10.40;99.90;;;;;;4265827;27;20408;-56
2023/11/17 01:26:49;;;;;;;3.40;1.70;;;10.40;99.90;;;;;;4265690;27;20068;-57
2023/11/17 01:28:52;;;;;;;4.32;2.10;;;10.50;99.90;;;;;;4265729;27;20047;-56
2023/11/17 01:30:54;;;;;;;4.22;1.90;;;10.50;99.90;;;;;;4265036;27;20051;-56
2023/11/17 01:32:57;;;;;;;4.65;1.55;;;10.50;99.90;;;;;;4246801;27;20510;-56
2023/11/17 01:34:59;;;;;;;6.38;2.13;;;10.40;99.90;;;;;;4265161;27;20100;-57
2023/11/17 01:37:02;;;;;;;3.70;1.92;;;10.40;99.90;;;;;;4265195;27;20039;-57
2023/11/17 01:39:04;;;;;;;4.25;2.30;;;10.40;99.90;;;;;;4265004;27;20043;-56
2023/11/17 01:41:06;;;;;;;2.75;2.10;;;10.30;99.90;;;;;;4265808;27;20465;-57
2023/11/17 01:43:11;;;;;;;4.15;1.85;;;10.30;99.90;;;;;;4264884;27;20383;-55
2023/11/17 01:45:15;;;;;;;4.63;2.00;;;10.30;99.90;;;;;;4265133;27;20066;-56
2023/11/17 01:47:20;;;;;;;5.65;2.20;;;10.30;99.90;;;;;;4265212;27;20453;-57
2023/11/17 01:49:22;;;;;;;6.05;2.33;;;10.40;99.90;;;;;;4264933;27;20047;-56
2023/11/17 01:51:25;;;;;;;4.78;1.80;;;10.40;99.90;;;;;;4265055;27;20500;-60
2023/11/17 01:53:29;;;;;;;5.05;1.60;;;10.30;99.90;;;;;;4265146;27;20043;-54
2023/11/17 01:55:31;;;;;;;5.13;1.88;;;10.30;99.90;;;;;;4246338;27;20050;-56
2023/11/17 01:57:35;;;;;;;5.88;1.95;;;10.30;99.90;;;;;;4264936;27;20051;-57
2023/11/17 01:59:37;;;;;;;4.53;2.15;;;10.40;99.90;;;;;;4264543;27;20047;-61
2023/11/17 02:01:40;;;;;;;8.25;2.50;;;10.50;99.90;;;;;;4264749;27;20070;-57
2023/11/17 02:03:43;;;;;;;4.95;2.25;;;10.50;99.90;;;;;;4246206;27;20055;-56
2023/11/17 02:05:51;;;;;;;4.70;2.10;;;10.50;99.90;;;;;;4264751;27;20099;-57
2023/11/17 02:08:18;;;;;;;5.72;2.05;;;10.60;99.90;;;;;;4264337;27;20057;-56
2023/11/17 02:10:25;;;;;;;3.42;1.85;;;10.60;99.90;;;;;;4264770;27;20034;-57
2023/11/17 02:12:46;;;;;;;8.43;2.42;;;10.70;99.90;;;;;;4265680;27;20047;-57
2023/11/17 02:14:50;;;;;;;3.47;1.58;;;10.70;99.90;;;;;;4264500;27;20043;-58
2023/11/17 02:17:00;;;;;;;3.97;1.70;;;10.80;99.90;;;;;;4266003;27;20043;-60
2023/11/17 02:19:11;;;;;;;3.63;1.70;;;10.80;99.90;;;;;;4268078;27;20465;-56
2023/11/17 02:21:28;;;;;;;5.88;1.52;;;10.80;99.90;;;;;;4268081;27;20389;-62
2023/11/17 02:23:31;;;;;;;5.50;1.95;;;10.80;99.90;;;;;;4267109;27;20039;-56
2023/11/17 02:25:44;;;;;;;3.25;1.65;;;10.70;99.90;;;;;;4265620;27;20481;-56
2023/11/17 02:27:59;;;;;;;6.32;2.15;;;10.70;99.90;;;;;;4264459;27;20047;-57
2023/11/17 02:30:05;;;;;;;2.25;1.48;;;10.60;99.90;;;;;;4264796;27;20074;-57
2023/11/17 02:32:15;;;;;;;2.80;1.77;;;10.70;99.90;;;;;;4264800;27;20462;-56
2023/11/17 02:34:24;;;;;;;6.93;2.00;;;10.80;99.90;;;;;;4264534;27;20042;-56
2023/11/17 02:36:26;;;;;;;3.78;1.58;;;10.70;99.90;;;;;;4264777;27;20074;-56
2023/11/17 02:38:29;;;;;;;4.40;1.67;;;10.80;99.90;;;;;;4264308;27;20047;-57
2023/11/17 02:40:31;;;;;;;6.28;1.95;;;10.60;99.90;;;;;;4264534;27;20042;-56
2023/11/17 02:42:37;;;;;;;4.72;2.17;;;10.60;99.90;;;;;;4264054;27;20130;-57
2023/11/17 02:44:44;;;;;;;5.43;1.80;;;10.70;99.90;;;;;;4264609;27;20134;-56
2023/11/17 02:46:58;;;;;;;4.88;1.80;;;10.60;99.90;;;;;;4264398;27;20282;-58
2023/11/17 02:49:03;;;;;;;4.80;1.50;;;10.60;99.90;;;;;;4264476;27;20038;-56
2023/11/17 02:51:32;;;;;;;6.88;2.20;;;10.60;99.90;;;;;;4264554;27;20065;-57
2023/11/17 02:53:34;;;;;;;3.80;1.55;;;10.50;99.90;;;;;;4263995;27;20111;-56
2023/11/17 02:55:37;;;;;;;6.50;1.75;;;10.40;99.90;;;;;;4264528;27;20046;-57
2023/11/17 02:57:40;;;;;;;3.53;1.95;;;10.50;99.90;;;;;;4264296;27;20038;-57
2023/11/17 02:59:44;;;;;;;3.90;1.50;;;10.50;99.90;;;;;;4264353;27;20473;-56
2023/11/17 03:01:50;;;;;;;5.47;1.15;;;10.50;99.90;;;;;;4264498;27;20070;-57
2023/11/17 03:03:53;;;;;;;4.22;1.98;;;10.60;99.90;;;;;;4264402;27;20103;-56
2023/11/17 03:05:59;;;;;;;4.05;1.80;;;10.60;99.90;;;;;;4264587;27;20046;-57
2023/11/17 03:08:01;;;;;;;5.65;1.73;;;10.70;99.90;;;;;;4264454;27;20047;-57
2023/11/17 03:10:05;;;;;;;3.00;1.70;;;10.70;99.90;;;;;;4264681;27;20045;-56
2023/11/17 03:12:07;;;;;;;3.73;2.10;;;10.80;99.90;;;;;;4264240;27;20480;-57
2023/11/17 03:14:10;;;;;;;4.93;2.65;;;10.60;99.90;;;;;;4264249;27;20447;-55
2023/11/17 03:16:13;;;;;;;6.53;2.60;;;10.70;99.90;;;;;;4264384;27;20039;-62
2023/11/17 03:18:16;;;;;;;3.85;2.25;;;10.60;99.90;;;;;;4264477;27;20409;-57
2023/11/17 03:20:19;;;;;;;3.53;2.28;;;10.70;99.90;;;;;;4266523;27;20049;-57
2023/11/17 03:22:21;;;;;;;2.65;1.58;;;10.80;99.90;;;;;;4267529;27;20058;-59
2023/11/17 03:24:24;;;;;;;4.85;1.83;;;10.70;99.90;;;;;;4267304;27;20066;-56
2023/11/17 03:26:27;;;;;;;5.40;2.15;;;10.80;99.90;;;;;;4269426;27;20070;-62
2023/11/17 03:28:29;;;;;;;3.55;1.60;;;10.70;99.90;;;;;;4270564;27;20042;-57
2023/11/17 03:30:31;;;;;;;3.85;1.42;;;10.70;99.90;;;;;;4270448;27;20130;-57
2023/11/17 03:32:34;;;;;;;3.28;1.75;;;10.70;99.90;;;;;;4270372;27;20477;-55
2023/11/17 03:34:40;;;;;;;6.50;2.15;;;10.90;99.90;;;;;;4252970;27;20510;-57
2023/11/17 03:36:42;;;;;;;7.13;3.22;;;10.80;99.90;;;;;;4270333;27;20064;-56
2023/11/17 03:38:45;;;;;;;5.75;2.72;;;10.60;99.90;;;;;;4269982;27;20046;-60
2023/11/17 03:40:47;;;;;;;5.90;3.10;;;10.80;99.90;;;;;;4269733;27;20070;-57
2023/11/17 03:42:50;;;;;;;6.20;2.58;;;10.80;99.90;;;;;;4267981;27;20401;-56
2023/11/17 03:44:57;;;;;;;5.40;2.35;;;10.80;99.90;;;;;;4267236;27;20109;-58
2023/11/17 03:46:59;;;;;;;7.25;2.58;;;10.80;99.90;;;;;;4267625;27;20552;-56
2023/11/17 03:49:02;;;;;;;4.97;2.38;;;10.80;99.90;;;;;;4267846;27;20080;-58
2023/11/17 03:51:06;;;;;;;5.25;2.20;;;10.80;99.90;;;;;;4267433;27;20049;-57
2023/11/17 03:53:08;;;;;;;3.85;2.13;;;10.80;99.90;;;;;;4266832;27;20042;-58
2023/11/17 03:55:11;;;;;;;6.95;2.35;;;10.80;99.90;;;;;;4266785;27;20453;-56
2023/11/17 03:57:13;;;;;;;3.30;1.40;;;10.90;99.90;;;;;;4266702;27;20046;-56
2023/11/17 03:59:16;;;;;;;3.85;1.63;;;10.80;99.90;;;;;;4266980;27;20451;-56
2023/11/17 04:01:18;;;;;;;6.25;1.38;;;10.80;99.90;;;;;;4266698;27;20050;-56
2023/11/17 04:03:20;;;;;;;5.18;1.88;;;10.80;99.90;;;;;;4266553;27;20142;-56
2023/11/17 04:05:22;;;;;;;3.17;1.42;;;10.80;99.90;;;;;;4266732;27;20121;-57
2023/11/17 04:07:26;;;;;;;2.65;1.30;;;10.90;99.90;;;;;;4248395;27;20100;-57
2023/11/17 04:09:28;;;;;;;3.55;1.30;;;11.00;99.90;;;;;;4266598;27;20103;-55
2023/11/17 04:11:30;;;;;;;1.52;1.33;;;11.00;99.90;;;;;;4266829;27;20042;-56
2023/11/17 04:13:36;;;;;;;2.65;1.25;;;10.90;99.90;;;;;;4266568;27;20043;-56
2023/11/17 04:15:39;;;;;;;2.88;1.33;;;10.90;99.90;;;;;;4266528;27;20050;-56
2023/11/17 04:17:41;;;;;;;5.10;1.40;;;11.00;99.90;;;;;;4266511;27;20446;-56
2023/11/17 04:19:43;;;;;;;4.78;1.60;;;11.00;99.90;;;;;;4266521;27;20039;-60
2023/11/17 04:21:46;;;;;;;4.28;1.40;;;10.90;99.90;;;;;;4266191;27;20477;-57
2023/11/17 04:23:51;;;;;;;7.57;1.60;;;11.00;99.90;;;;;;4247566;27;20142;-56
2023/11/17 04:25:53;;;;;;;2.72;1.67;;;10.90;99.90;;;;;;4266056;27;20103;-56
2023/11/17 04:27:56;;;;;;;3.78;1.50;;;11.00;99.90;;;;;;4266386;27;20053;-56
2023/11/17 04:29:58;;;;;;;4.30;1.77;;;10.90;99.90;;;;;;4266341;27;20136;-55
2023/11/17 04:32:00;;;;;;;4.05;1.35;;;10.90;99.90;;;;;;4265265;27;20051;-56
2023/11/17 04:34:05;;;;;;;3.42;0.98;;;10.90;99.90;;;;;;4266346;27;20070;-56
2023/11/17 04:36:10;;;;;;;5.03;1.60;;;11.00;99.90;;;;;;4266136;27;20047;-56
2023/11/17 04:38:14;;;;;;;3.80;1.60;;;11.00;99.90;;;;;;4265942;27;20058;-57
2023/11/17 04:40:17;;;;;;;6.28;2.10;;;11.10;99.90;;;;;;4266239;27;20401;-57
2023/11/17 04:42:20;;;;;;;3.85;1.67;;;11.10;99.90;;;;;;4266227;27;20049;-56
2023/11/17 04:44:23;;;;;;;7.65;1.60;;;11.10;99.90;;;;;;4266014;27;20382;-56
2023/11/17 04:46:25;;;;;;;4.45;1.52;;;11.00;99.90;;;;;;4266092;27;20046;-56
2023/11/17 04:48:28;;;;;;;3.55;1.58;;;10.90;99.90;;;;;;4247823;27;20050;-56
2023/11/17 04:50:31;;;;;;;4.80;1.23;;;10.90;99.90;;;;;;4266086;27;20047;-55
2023/11/17 04:52:33;;;;;;;4.03;1.17;;;10.90;99.90;;;;;;4265803;27;20047;-56
2023/11/17 04:54:35;;;;;;;4.05;1.30;;;10.70;99.90;;;;;;4265777;27;20088;-54
2023/11/17 04:56:38;;;;;;;7.43;1.90;;;10.70;99.90;;;;;;4267792;27;20189;-55
2023/11/17 04:58:41;;;;;;;4.72;1.42;;;10.70;99.90;;;;;;4268250;27;20122;-57
2023/11/17 05:00:43;;;;;;;4.97;1.65;;;10.70;99.90;;;;;;4267293;27;20043;-55
2023/11/17 05:02:47;;;;;;;4.72;1.55;;;10.70;99.90;;;;;;4266093;27;20050;-56
2023/11/17 05:04:50;;;;;;;3.40;1.25;;;10.60;99.90;;;;;;4265593;27;20493;-57
2023/11/17 05:06:52;;;;;;;6.72;2.10;;;10.60;99.90;;;;;;4265181;27;20099;-57
2023/11/17 05:08:54;;;;;;;4.18;1.08;;;10.60;99.90;;;;;;4265892;27;20432;-56
2023/11/17 05:10:56;;;;;;;4.72;1.52;;;10.50;99.90;;;;;;4265794;27;20089;-56
2023/11/17 05:13:01;;;;;;;10.75;2.08;;;10.50;99.90;;;;;;4265514;27;20180;-55
2023/11/17 05:15:04;;;;;;;5.13;1.75;;;10.50;99.90;;;;;;4265548;27;20106;-57
2023/11/17 05:17:09;;;;;;;3.10;1.20;;;10.60;99.90;;;;;;4265739;27;20047;-60
2023/11/17 05:19:14;;;;;;;6.35;1.38;;;10.50;99.90;;;;;;4265501;27;20597;-56
2023/11/17 05:21:17;;;;;;;4.82;1.42;;;10.60;99.90;;;;;;4265212;27;20122;-57
2023/11/17 05:23:20;;;;;;;5.55;1.65;;;10.60;99.90;;;;;;4264884;27;20082;-53
2023/11/17 05:25:22;;;;;;;3.78;1.13;;;10.70;99.90;;;;;;4265443;27;20043;-54
2023/11/17 05:27:24;;;;;;;3.30;1.40;;;10.70;99.90;;;;;;4265471;27;20046;-53
2023/11/17 05:29:28;;;;;;;4.40;1.50;;;10.70;99.90;;;;;;4265223;27;20047;-55
2023/11/17 05:31:30;;;;;;;4.85;1.48;;;10.70;99.90;;;;;;4265175;27;20043;-53
2023/11/17 05:33:32;;;;;;;4.50;1.73;;;10.60;99.90;;;;;;4265001;27;20070;-54
2023/11/17 05:35:40;;;;;;;4.63;1.65;;;10.50;99.90;;;;;;4265614;27;20046;-54
2023/11/17 05:37:42;;;;;;;7.43;2.00;;;10.50;99.90;;;;;;4264761;27;20106;-52
2023/11/17 05:39:47;;;;;;;5.10;1.90;;;10.50;99.90;;;;;;4265215;27;20047;-53
2023/11/17 05:41:49;;;;;;;7.50;1.83;;;10.50;99.90;;;;;;4246837;27;20142;-53
2023/11/17 05:43:53;;;;;;;4.78;2.28;;;10.50;99.90;;;;;;4265042;27;20046;-55
2023/11/17 05:46:00;;;;;;;3.90;1.50;;;10.60;99.90;;;;;;4266764;27;20493;-54
2023/11/17 05:48:02;;;;;;;;;;;10.70;99.90;;;;;;4266857;27;20125;-54
2023/11/17 05:50:08;;;;;;;3.75;1.10;;;10.70;99.90;;;;;;4265775;27;19919;-52
2023/11/17 05:52:11;;;;;;;7.82;2.00;;;10.60;99.90;;;;;;4264595;27;20077;-56
2023/11/17 05:54:16;;;;;;;7.75;1.92;;;10.60;99.90;;;;;;4264951;27;20528;-55
2023/11/17 05:56:18;;;;;;;7.40;1.58;;;10.70;99.90;;;;;;4265072;27;20458;-54
2023/11/17 05:58:20;;;;;;;6.80;2.10;;;10.60;99.90;;;;;;4265317;27;20039;-55
2023/11/17 06:00:31;;;;;;;6.03;1.85;;;10.70;99.90;;;;;;4264974;27;20053;-54
2023/11/17 06:02:34;;;;;;;3.47;1.60;;;10.70;99.90;;;;;;4265046;27;20477;-54
2023/11/17 06:04:39;;;;;;;7.20;2.08;;;10.70;99.90;;;;;;4265816;27;20294;-54
2023/11/17 06:06:41;;;;;;;5.93;1.98;;;10.60;99.90;;;;;;4266087;27;20046;-54
2023/11/17 06:08:43;;;;;;;10.52;1.50;;;10.60;99.90;;;;;;4266431;27;20043;-56
2023/11/17 06:10:45;;;;;;;5.03;1.70;;;10.70;99.90;;;;;;4266179;27;20070;-55
2023/11/17 06:12:48;;;;;;;7.07;1.80;;;10.80;99.90;;;;;;4265293;27;20050;-55
2023/11/17 06:14:50;;;;;;;3.92;1.50;;;10.80;99.90;;;;;;4265236;27;20412;-55
2023/11/17 06:16:55;;;;;;;3.60;1.33;;;10.80;99.90;;;;;;4265063;27;20354;-54
2023/11/17 06:18:58;;;;;;;5.95;1.83;;;10.80;99.90;;;;;;4264932;27;20054;-55
2023/11/17 06:21:02;;;;;;;5.20;2.03;;;10.80;99.90;;;;;;4264264;27;20067;-54
2023/11/17 06:23:04;;;;;;;6.15;2.05;;;10.80;99.90;;;;;;4264973;27;20046;-54
2023/11/17 06:25:08;;;;;;;11.63;2.60;;;10.90;99.90;;;;;;4264431;27;20461;-54
2023/11/17 06:27:11;;;;;;;5.35;1.70;;;10.90;99.90;;;;;;4264478;27;20448;-54
2023/11/17 06:29:13;;;;;;;8.13;1.85;;;11.10;99.90;;;;;;4264530;27;20050;-54
2023/11/17 06:31:16;;;;;;;6.00;1.60;;;11.10;99.90;;;;;;4264810;27;20054;-54
2023/11/17 06:33:18;;;;;;;5.15;2.13;;;11.10;99.90;;;;;;4264891;27;20043;-53
2023/11/17 06:35:22;;;;;;;5.30;1.92;;;11.10;99.90;;;;;;4264463;27;20540;-54
2023/11/17 06:37:24;;;;;;;6.28;1.90;;;11.20;99.90;;;;;;4264622;27;20043;-54
2023/11/17 06:39:29;;;;;;;6.80;1.67;;;11.20;99.90;;;;;;4264642;27;20046;-56
2023/11/17 06:41:31;;;;;;;3.88;1.83;;;11.20;99.90;;;;;;4264540;27;20560;-54
2023/11/17 06:43:33;;;;;;;3.83;1.45;;;11.10;99.90;;;;;;4264691;27;20054;-54
2023/11/17 06:45:36;;;;;;;7.35;2.20;;;11.10;99.90;;;;;;4246205;28;20533;-54
2023/11/17 06:47:42;;;;;;;5.47;1.70;;;11.00;99.90;;;;;;4264812;27;20587;-56
2023/11/17 06:49:44;;;;;;;5.40;1.80;;;11.10;99.90;;;;;;4264714;27;20043;-54
2023/11/17 06:51:48;;;;;;;8.80;1.40;;;11.20;99.90;;;;;;4264765;27;20066;-54
2023/11/17 06:53:51;;;;;;;3.03;1.20;;;11.10;99.90;;;;;;4264717;27;20051;-55
2023/11/17 06:55:54;;;;;;;5.22;1.55;;;11.00;99.90;;;;;;4267690;27;20070;-55
2023/11/17 06:57:56;;;;;;;10.98;1.98;;;11.00;99.90;;;;;;4250032;27;20073;-54
2023/11/17 06:59:58;;;;;;;5.13;1.77;;;10.90;99.90;;;;;;4250077;27;20047;-55
2023/11/17 07:02:00;;;;;;;3.33;1.30;;;11.00;99.90;;;;;;4267676;27;20133;-54
2023/11/17 07:04:03;;;;;;;10.73;1.58;;;11.00;99.90;;;;;;4267451;27;20138;-54
2023/11/17 07:06:06;;;;;;;5.35;1.52;;;11.00;99.90;;;;;;4267877;27;20374;-55
2023/11/17 07:08:10;;;;;;;6.18;1.63;;;10.90;99.90;;;;;;4267642;27;20118;-54
2023/11/17 07:10:14;;;;;;;5.23;1.37;;;10.90;99.90;;;;;;4267611;27;20087;-56
2023/11/17 07:12:21;;;;;;;5.82;1.77;;;10.90;99.90;;;;;;4267800;27;20449;-55
2023/11/17 07:14:23;;;;;;;4.47;1.48;;;10.80;99.90;;;;;;4267704;27;20103;-53
2023/11/17 07:16:25;;;;;;;3.55;1.40;;;10.70;99.90;;;;;;4267851;27;20121;-55
2023/11/17 07:18:42;;;;;;;4.95;1.67;;;10.70;99.90;;;;;;4266941;27;20042;-53
2023/11/17 07:20:44;;;;;;;5.88;2.00;;;10.80;99.90;;;;;;4267510;27;20042;-54
2023/11/17 07:22:49;;;;;;;5.72;1.45;;;10.80;99.90;;;;;;4267506;27;20049;-54
2023/11/17 07:24:52;;;;;;;3.42;1.58;;;10.70;99.90;;;;;;4267481;27;20095;-54
2023/11/17 07:26:55;;;;;;;2.95;1.30;;;10.80;99.90;;;;;;4267256;27;20066;-54
2023/11/17 07:29:01;;;;;;;4.07;1.67;;;10.70;99.90;;;;;;4267144;27;20047;-55
2023/11/17 07:31:03;;;;;;;6.93;2.03;;;10.70;99.90;;;;;;4267326;27;20054;-55
2023/11/17 07:33:09;;;;;;;4.43;1.30;;;10.80;99.90;;;;;;4266853;27;20480;-54
2023/11/17 07:35:11;;;;;;;5.20;1.80;;;10.80;99.90;;;;;;4267132;27;20386;-53
2023/11/17 07:37:14;;;;;;;2.65;1.42;;;10.80;99.90;;;;;;4267422;27;20047;-54
2023/11/17 07:39:18;;;;;;;3.67;1.40;;;10.90;99.90;;;;;;4266954;27;20099;-54
2023/11/17 07:41:25;;;;;;;8.57;1.77;;;10.80;99.90;;;;;;4267593;27;20046;-55
2023/11/17 07:43:27;;;;;;;3.75;1.50;;;10.80;99.90;;;;;;4267289;27;20118;-53
2023/11/17 07:45:29;;;;;;;7.45;1.88;;;10.80;99.90;;;;;;4267959;27;20039;-54
2023/11/17 07:47:33;;;;;;;5.25;1.60;;;10.80;99.90;;;;;;4268658;27;20047;-67
2023/11/17 07:49:35;;;;;;;4.57;1.77;;;10.90;99.90;;;;;;4269675;27;20485;-61
2023/11/17 07:51:38;;;;;;;4.30;1.25;;;10.80;99.90;;;;;;4267953;27;20058;-55
2023/11/17 07:53:40;;;;;;;4.45;1.63;;;10.80;99.90;;;;;;4267208;27;20038;-54
2023/11/17 07:55:42;;;;;;;3.85;1.48;;;10.90;99.90;;;;;;4267388;27;20046;-54
2023/11/17 07:57:45;;;;;;;4.68;1.58;;;10.90;99.90;;;;;;4266885;27;20042;-54
2023/11/17 07:59:48;;;;;;;4.78;1.63;;;10.80;99.90;;;;;;4266916;27;20451;-53
2023/11/17 08:01:50;;;;;;;8.95;1.92;;;10.90;99.90;;;;;;4266652;27;20043;-55
2023/11/17 08:03:53;;;;;;;4.13;1.80;;;10.80;99.90;;;;;;4266364;27;20489;-54
2023/11/17 08:05:56;;;;;;;7.32;1.77;;;10.70;99.90;;;;;;4265402;27;20108;-53
2023/11/17 08:08:00;;;;;;;7.35;1.90;;;10.90;99.90;;;;;;4266984;27;20070;-54
2023/11/17 08:10:06;;;;;;;7.90;1.90;;;10.90;99.90;;;;;;4266727;27;20090;-55
2023/11/17 08:12:08;;;;;;;5.22;2.05;;;11.00;99.90;;;;;;4266820;27;20443;-54
2023/11/17 08:14:12;;;;;;;4.53;1.60;;;10.90;99.90;;;;;;4267185;27;20058;-55
2023/11/17 08:16:14;;;;;;;9.52;2.05;;;11.00;99.90;;;;;;4267547;27;20077;-54
2023/11/17 08:18:16;;;;;;;4.97;1.92;;;11.10;99.90;;;;;;4267727;27;20043;-61
2023/11/17 08:20:18;;;;;;;8.77;1.95;;;11.20;99.90;;;;;;4251135;27;20061;-59
2023/11/17 08:22:20;;;;;;;9.98;2.22;;;11.30;99.90;;;;;;4269093;27;20047;-55
2023/11/17 08:24:23;;;;;;;6.85;2.42;;;11.30;99.90;;;;;;4267534;27;20038;-54
2023/11/17 08:26:31;;;;;;;9.60;2.05;;;11.30;99.90;;;;;;4248640;27;20043;-55
2023/11/17 08:28:33;;;;;;;3.00;1.40;;;11.40;99.90;;;;;;4266755;27;20046;-55
2023/11/17 08:30:41;;;;;;;7.88;1.63;;;11.40;99.90;;;;;;4266218;27;20099;-54
2023/11/17 08:32:54;;;;;;;5.50;1.40;;;11.30;99.90;;;;;;4248538;27;20525;-55
2023/11/17 08:34:56;;;;;;;7.72;2.92;;;11.10;99.90;;;;;;4266599;27;20481;-56
2023/11/17 08:36:58;;;;;;;23.63;4.13;;;11.10;99.90;;;;;;4266516;27;20121;-54
2023/11/17 08:39:01;;;;;;;11.70;2.35;;;11.10;99.90;;;;;;4266503;27;20126;-55
2023/11/17 08:41:04;;;;;;;6.13;2.47;;;11.20;99.90;;;;;;4266221;27;20035;-57
2023/11/17 08:43:06;;;;;;;10.90;2.90;;;11.10;99.90;;;;;;4266292;27;20046;-54
2023/11/17 08:45:09;;;;;;;7.53;2.75;;;11.20;99.90;;;;;;4265856;27;20045;-55
2023/11/17 08:47:13;;;;;;;14.23;2.70;;;11.10;99.90;;;;;;4266469;27;20047;-55
2023/11/17 08:49:16;;;;;;;7.22;2.28;;;11.00;99.90;;;;;;4266658;27;20051;-54
2023/11/17 08:51:18;;;;;;;7.00;1.67;;;10.90;99.90;;;;;;4266651;27;20473;-55
2023/11/17 08:53:20;;;;;;;10.85;2.55;;;11.00;99.90;;;;;;4266408;27;20081;-55
2023/11/17 08:55:27;;;;;;;9.10;2.25;;;10.80;99.90;;;;;;4265943;27;20074;-56
2023/11/17 08:57:30;;;;;;;14.27;3.15;;;10.80;99.90;;;;;;4266279;27;20126;-56
2023/11/17 08:59:33;;;;;;;9.55;2.38;;;10.70;99.90;;;;;;4265630;27;20085;-58
2023/11/17 09:01:35;;;;;;;10.45;2.08;;;10.80;99.90;;;;;;4266321;27;20130;-57
2023/11/17 09:03:38;;;;;;;8.75;2.63;;;10.70;99.90;;;;;;4265499;27;20092;-57
2023/11/17 09:05:41;;;;;;;6.90;2.22;;;10.80;99.90;;;;;;4265995;27;20124;-57
2023/11/17 09:07:45;;;;;;;10.25;2.22;;;10.90;99.90;;;;;;4265851;27;20050;-57
2023/11/17 09:09:47;;;;;;;8.73;2.22;;;11.00;99.90;;;;;;4265797;27;20400;-56
2023/11/17 09:11:49;;;;;;;10.07;2.72;;;11.10;99.90;;;;;;4265634;27;20053;-57
2023/11/17 09:13:53;;;;;;;4.88;2.05;;;11.00;99.90;;;;;;4265499;27;20070;-57
2023/11/17 09:15:55;;;;;;;8.90;2.10;;;11.00;99.90;;;;;;4265692;27;20047;-55
2023/11/17 09:17:58;;;;;;;10.88;3.35;;;11.00;99.90;;;;;;4265125;27;20047;-56
2023/11/17 09:20:09;;;;;;;6.68;2.30;;;11.00;99.90;;;;;;4266006;27;20111;-57
2023/11/17 09:22:11;;;;;;;11.70;2.50;;;11.00;99.90;;;;;;4265601;27;20134;-56
2023/11/17 09:24:13;;;;;;;5.70;2.38;;;11.10;99.90;;;;;;4265737;27;20066;-57
2023/11/17 09:26:15;;;;;;;5.38;2.30;;;11.10;99.90;;;;;;4265743;27;20061;-58
2023/11/17 09:28:17;;;;;;;5.70;2.65;;;11.10;99.90;;;;;;4265076;27;20541;-57
2023/11/17 09:30:21;;;;;;;8.20;2.55;;;11.10;99.90;;;;;;4265434;27;20130;-58
2023/11/17 09:32:25;;;;;;;7.35;2.15;;;11.20;99.90;;;;;;4265464;27;20054;-56
2023/11/17 09:34:27;;;;;;;5.90;2.10;;;11.20;99.90;;;;;;4265386;27;20110;-57
2023/11/17 09:36:31;;;;;;;5.72;2.03;;;11.20;99.90;;;;;;4265286;27;20087;-57
2023/11/17 09:38:34;;;;;;;8.82;3.08;;;11.30;99.90;;;;;;4265055;27;20071;-56
2023/11/17 09:40:40;;;;;;;12.10;3.05;;;11.30;99.90;;;;;;4265343;27;20055;-57
2023/11/17 09:42:43;;;;;;;10.27;2.80;;;11.40;99.90;;;;;;4264783;27;20043;-59
2023/11/17 09:44:46;;;;;;;9.20;2.38;;;11.40;99.90;;;;;;4265444;27;20038;-56
2023/11/17 09:46:53;;;;;;;8.70;2.00;;;11.60;99.90;;;;;;4265341;27;20081;-56
2023/11/17 09:49:02;;;;;;;9.85;2.30;;;11.40;99.90;;;;;;4267412;27;20038;-57
2023/11/17 09:51:05;;;;;;;7.78;1.70;;;11.30;99.90;;;;;;4248065;27;20046;-56
2023/11/17 09:53:12;;;;;;;5.93;1.83;;;11.50;99.90;;;;;;4265881;27;20049;-56
2023/11/17 09:55:16;;;;;;;10.93;2.30;;;11.60;99.90;;;;;;4265270;27;20089;-57
2023/11/17 09:57:21;;;;;;;;;;;11.50;99.90;;;;;;4265659;27;20047;-56
2023/11/17 09:59:25;;;;;;;9.07;2.17;;;11.50;99.90;;;;;;4265188;27;19919;-57
2023/11/17 10:01:28;;;;;;;6.55;2.00;;;11.60;99.90;;;;;;4246984;27;20055;-60
2023/11/17 10:03:34;;;;;;;6.78;1.92;;;11.50;99.90;;;;;;4265310;27;20111;-56
2023/11/17 10:05:38;;;;;;;7.85;2.03;;;11.70;99.90;;;;;;4264929;27;20504;-57
2023/11/17 10:07:40;;;;;;;6.63;1.83;;;11.80;99.90;;;;;;4264941;27;20092;-57
2023/11/17 10:09:46;;;;;;;5.95;1.90;;;11.90;99.90;;;;;;4265110;27;20043;-57
2023/11/17 10:11:51;;;;;;;5.97;1.98;;;12.00;99.90;;;;;;4265133;27;20051;-57
2023/11/17 10:13:56;;;;;;;9.60;1.80;;;12.20;99.90;;;;;;4266684;27;20178;-57
2023/11/17 10:16:02;;;;;;;6.53;1.90;;;12.20;99.90;;;;;;4265781;27;20417;-56
2023/11/17 10:18:06;;;;;;;8.43;2.28;;;12.30;99.90;;;;;;4265063;27;20047;-54
2023/11/17 10:20:17;;;;;;;7.65;1.90;;;12.20;99.90;;;;;;4264767;27;20130;-55
2023/11/17 10:22:20;;;;;;;5.43;1.60;;;12.20;99.90;;;;;;4264865;27;20062;-55
2023/11/17 10:24:23;;;;;;;5.15;1.75;;;12.00;99.90;;;;;;4264860;27;20046;-56
2023/11/17 10:26:28;;;;;;;5.88;2.08;;;12.00;99.90;;;;;;4264630;27;20051;-53
2023/11/17 10:28:30;;;;;;;5.70;2.00;;;11.90;99.90;;;;;;4264789;27;20039;-54
2023/11/17 10:30:41;;;;;;;7.10;2.15;;;12.00;99.90;;;;;;4267552;27;20042;-54
2023/11/17 10:32:53;;;;;;;11.07;3.13;;;11.90;99.90;;;;;;4250409;27;20130;-54
2023/11/17 10:35:25;;;;;;;5.47;1.67;;;11.90;99.90;;;;;;4268454;27;20051;-56
2023/11/17 10:37:33;;;;;;;8.43;1.90;;;12.00;99.90;;;;;;4268739;27;20042;-55
2023/11/17 10:39:49;;;;;;;6.63;1.75;;;12.00;99.90;;;;;;4270409;27;20122;-56
2023/11/17 10:42:17;;;;;;;4.50;1.65;;;12.20;99.90;;;;;;4270482;27;20047;-55
2023/11/17 10:44:38;;;;;;;9.60;3.03;;;12.20;99.90;;;;;;4270601;27;20537;-55